sensor_id;sensor_type;location;lat;lon;timestamp;P1;durP1;ratioP1;P2;durP2;ratioP2
16246;SDS011;8231;50.866;7.944;2024-02-21T00:00:44;12.98;;;8.60;;
16246;SDS011;8231;50.866;7.944;2024-02-21T00:03:13;9.50;;;6.28;;
16246;SDS011;8231;50.866;7.944;2024-02-21T00:05:41;15.70;;;8.18;;
16246;SDS011;8231;50.866;7.944;2024-02-21T00:08:09;12.18;;;6.97;;
16246;SDS011;8231;50.866;7.944;2024-02-21T00:10:37;8.68;;;6.85;;
16246;SDS011;8231;50.866;7.944;2024-02-21T00:13:06;13.95;;;8.25;;
16246;SDS011;8231;50.866;7.944;2024-02-21T00:15:35;11.68;;;7.07;;
16246;SDS011;8231;50.866;7.944;2024-02-21T00:18:04;15.60;;;7.78;;
16246;SDS011;8231;50.866;7.944;2024-02-21T00:20:33;13.98;;;7.72;;
16246;SDS011;8231;50.866;7.944;2024-02-21T00:23:01;13.45;;;7.55;;
16246;SDS011;8231;50.866;7.944;2024-02-21T00:25:29;13.88;;;7.53;;
16246;SDS011;8231;50.866;7.944;2024-02-21T00:27:58;14.43;;;8.35;;
16246;SDS011;8231;50.866;7.944;2024-02-21T00:30:26;17.60;;;7.35;;
16246;SDS011;8231;50.866;7.944;2024-02-21T00:32:56;11.85;;;7.30;;
16246;SDS011;8231;50.866;7.944;2024-02-21T00:35:24;12.70;;;7.25;;
16246;SDS011;8231;50.866;7.944;2024-02-21T00:37:52;15.00;;;7.53;;
16246;SDS011;8231;50.866;7.944;2024-02-21T00:40:20;11.48;;;7.45;;
16246;SDS011;8231;50.866;7.944;2024-02-21T00:42:49;9.85;;;6.75;;
16246;SDS011;8231;50.866;7.944;2024-02-21T00:45:17;15.88;;;7.85;;
16246;SDS011;8231;50.866;7.944;2024-02-21T00:47:45;15.13;;;7.47;;
16246;SDS011;8231;50.866;7.944;2024-02-21T00:50:15;14.45;;;7.43;;
16246;SDS011;8231;50.866;7.944;2024-02-21T00:52:43;12.88;;;7.35;;
16246;SDS011;8231;50.866;7.944;2024-02-21T00:55:11;10.05;;;7.28;;
16246;SDS011;8231;50.866;7.944;2024-02-21T00:57:40;12.98;;;6.85;;
16246;SDS011;8231;50.866;7.944;2024-02-21T01:00:08;11.25;;;6.25;;
16246;SDS011;8231;50.866;7.944;2024-02-21T01:02:37;12.05;;;7.88;;
16246;SDS011;8231;50.866;7.944;2024-02-21T01:05:06;15.13;;;8.48;;
16246;SDS011;8231;50.866;7.944;2024-02-21T01:07:36;14.45;;;8.50;;
16246;SDS011;8231;50.866;7.944;2024-02-21T01:10:05;15.45;;;9.30;;
16246;SDS011;8231;50.866;7.944;2024-02-21T01:12:34;15.18;;;8.25;;
16246;SDS011;8231;50.866;7.944;2024-02-21T01:15:03;11.50;;;7.57;;
16246;SDS011;8231;50.866;7.944;2024-02-21T01:17:32;11.38;;;7.95;;
16246;SDS011;8231;50.866;7.944;2024-02-21T01:20:00;15.15;;;8.77;;
16246;SDS011;8231;50.866;7.944;2024-02-21T01:22:28;15.52;;;8.50;;
16246;SDS011;8231;50.866;7.944;2024-02-21T01:24:57;13.35;;;8.82;;
16246;SDS011;8231;50.866;7.944;2024-02-21T01:27:26;12.27;;;8.35;;
16246;SDS011;8231;50.866;7.944;2024-02-21T01:29:54;11.07;;;8.02;;
16246;SDS011;8231;50.866;7.944;2024-02-21T01:32:23;16.15;;;8.60;;
16246;SDS011;8231;50.866;7.944;2024-02-21T01:34:51;11.88;;;8.18;;
16246;SDS011;8231;50.866;7.944;2024-02-21T01:37:19;16.65;;;7.88;;
16246;SDS011;8231;50.866;7.944;2024-02-21T01:39:48;16.33;;;8.55;;
16246;SDS011;8231;50.866;7.944;2024-02-21T01:42:18;10.77;;;8.02;;
16246;SDS011;8231;50.866;7.944;2024-02-21T01:44:46;11.23;;;7.68;;
16246;SDS011;8231;50.866;7.944;2024-02-21T01:47:14;12.48;;;8.40;;
16246;SDS011;8231;50.866;7.944;2024-02-21T01:49:43;13.73;;;8.10;;
16246;SDS011;8231;50.866;7.944;2024-02-21T01:52:12;12.02;;;7.60;;
16246;SDS011;8231;50.866;7.944;2024-02-21T01:54:43;14.68;;;8.32;;
16246;SDS011;8231;50.866;7.944;2024-02-21T01:57:12;10.88;;;8.70;;
16246;SDS011;8231;50.866;7.944;2024-02-21T01:59:42;11.13;;;8.13;;
16246;SDS011;8231;50.866;7.944;2024-02-21T02:02:10;14.73;;;8.80;;
16246;SDS011;8231;50.866;7.944;2024-02-21T02:04:38;11.40;;;7.63;;
16246;SDS011;8231;50.866;7.944;2024-02-21T02:07:07;11.13;;;7.20;;
16246;SDS011;8231;50.866;7.944;2024-02-21T02:09:35;12.90;;;8.20;;
16246;SDS011;8231;50.866;7.944;2024-02-21T02:12:04;11.40;;;7.43;;
16246;SDS011;8231;50.866;7.944;2024-02-21T02:14:33;10.63;;;7.85;;
16246;SDS011;8231;50.866;7.944;2024-02-21T02:17:02;12.63;;;8.07;;
16246;SDS011;8231;50.866;7.944;2024-02-21T02:19:31;14.10;;;8.82;;
16246;SDS011;8231;50.866;7.944;2024-02-21T02:22:00;14.68;;;8.60;;
16246;SDS011;8231;50.866;7.944;2024-02-21T02:24:37;16.00;;;8.23;;
16246;SDS011;8231;50.866;7.944;2024-02-21T02:27:06;13.38;;;7.95;;
16246;SDS011;8231;50.866;7.944;2024-02-21T02:29:34;11.10;;;7.70;;
16246;SDS011;8231;50.866;7.944;2024-02-21T02:32:02;16.40;;;8.35;;
16246;SDS011;8231;50.866;7.944;2024-02-21T02:34:31;12.90;;;7.95;;
16246;SDS011;8231;50.866;7.944;2024-02-21T02:36:59;14.20;;;8.70;;
16246;SDS011;8231;50.866;7.944;2024-02-21T02:39:28;9.90;;;7.20;;
16246;SDS011;8231;50.866;7.944;2024-02-21T02:41:57;12.93;;;7.57;;
16246;SDS011;8231;50.866;7.944;2024-02-21T02:44:26;14.13;;;8.50;;
16246;SDS011;8231;50.866;7.944;2024-02-21T02:46:54;10.65;;;7.10;;
16246;SDS011;8231;50.866;7.944;2024-02-21T02:49:22;11.85;;;7.60;;
16246;SDS011;8231;50.866;7.944;2024-02-21T02:51:50;9.60;;;7.50;;
16246;SDS011;8231;50.866;7.944;2024-02-21T02:54:19;11.52;;;7.57;;
16246;SDS011;8231;50.866;7.944;2024-02-21T02:56:47;13.68;;;8.18;;
16246;SDS011;8231;50.866;7.944;2024-02-21T02:59:19;10.85;;;7.38;;
16246;SDS011;8231;50.866;7.944;2024-02-21T03:01:47;11.23;;;7.35;;
16246;SDS011;8231;50.866;7.944;2024-02-21T03:04:15;11.73;;;7.25;;
16246;SDS011;8231;50.866;7.944;2024-02-21T03:06:43;16.35;;;8.07;;
16246;SDS011;8231;50.866;7.944;2024-02-21T03:09:12;12.18;;;8.23;;
16246;SDS011;8231;50.866;7.944;2024-02-21T03:11:42;11.60;;;8.02;;
16246;SDS011;8231;50.866;7.944;2024-02-21T03:14:10;13.30;;;7.72;;
16246;SDS011;8231;50.866;7.944;2024-02-21T03:16:40;14.40;;;8.20;;
16246;SDS011;8231;50.866;7.944;2024-02-21T03:19:08;11.85;;;7.25;;
16246;SDS011;8231;50.866;7.944;2024-02-21T03:21:37;13.88;;;7.15;;
16246;SDS011;8231;50.866;7.944;2024-02-21T03:24:06;13.85;;;7.90;;
16246;SDS011;8231;50.866;7.944;2024-02-21T03:26:34;14.00;;;6.90;;
16246;SDS011;8231;50.866;7.944;2024-02-21T03:29:03;12.43;;;7.80;;
16246;SDS011;8231;50.866;7.944;2024-02-21T03:31:31;11.40;;;7.05;;
16246;SDS011;8231;50.866;7.944;2024-02-21T03:34:00;11.35;;;7.40;;
16246;SDS011;8231;50.866;7.944;2024-02-21T03:36:29;11.98;;;7.05;;
16246;SDS011;8231;50.866;7.944;2024-02-21T03:38:57;10.13;;;6.57;;
16246;SDS011;8231;50.866;7.944;2024-02-21T03:41:26;9.60;;;5.60;;
16246;SDS011;8231;50.866;7.944;2024-02-21T03:43:54;10.07;;;6.75;;
16246;SDS011;8231;50.866;7.944;2024-02-21T03:46:23;14.20;;;7.72;;
16246;SDS011;8231;50.866;7.944;2024-02-21T03:48:52;14.20;;;7.57;;
16246;SDS011;8231;50.866;7.944;2024-02-21T03:51:22;9.52;;;6.97;;
16246;SDS011;8231;50.866;7.944;2024-02-21T03:53:50;10.00;;;7.40;;
16246;SDS011;8231;50.866;7.944;2024-02-21T03:56:18;11.23;;;7.30;;
16246;SDS011;8231;50.866;7.944;2024-02-21T03:58:46;11.63;;;6.68;;
16246;SDS011;8231;50.866;7.944;2024-02-21T04:01:15;10.13;;;6.82;;
16246;SDS011;8231;50.866;7.944;2024-02-21T04:03:43;15.25;;;7.45;;
16246;SDS011;8231;50.866;7.944;2024-02-21T04:06:12;12.32;;;7.97;;
16246;SDS011;8231;50.866;7.944;2024-02-21T04:08:42;11.40;;;7.47;;
16246;SDS011;8231;50.866;7.944;2024-02-21T04:11:10;9.38;;;6.70;;
16246;SDS011;8231;50.866;7.944;2024-02-21T04:13:38;9.48;;;6.18;;
16246;SDS011;8231;50.866;7.944;2024-02-21T04:16:06;9.93;;;6.25;;
16246;SDS011;8231;50.866;7.944;2024-02-21T04:18:34;12.27;;;6.65;;
16246;SDS011;8231;50.866;7.944;2024-02-21T04:21:02;12.75;;;6.85;;
16246;SDS011;8231;50.866;7.944;2024-02-21T04:23:31;9.43;;;6.35;;
16246;SDS011;8231;50.866;7.944;2024-02-21T04:26:01;9.25;;;5.90;;
16246;SDS011;8231;50.866;7.944;2024-02-21T04:28:29;12.00;;;7.38;;
16246;SDS011;8231;50.866;7.944;2024-02-21T04:30:57;11.15;;;6.57;;
16246;SDS011;8231;50.866;7.944;2024-02-21T04:33:25;9.65;;;5.72;;
16246;SDS011;8231;50.866;7.944;2024-02-21T04:35:53;7.07;;;6.35;;
16246;SDS011;8231;50.866;7.944;2024-02-21T04:38:22;10.55;;;6.07;;
16246;SDS011;8231;50.866;7.944;2024-02-21T04:40:50;14.35;;;7.57;;
16246;SDS011;8231;50.866;7.944;2024-02-21T04:43:20;11.00;;;6.53;;
16246;SDS011;8231;50.866;7.944;2024-02-21T04:45:48;15.40;;;6.95;;
16246;SDS011;8231;50.866;7.944;2024-02-21T04:48:17;11.30;;;6.90;;
16246;SDS011;8231;50.866;7.944;2024-02-21T04:50:45;12.93;;;6.80;;
16246;SDS011;8231;50.866;7.944;2024-02-21T04:53:13;12.45;;;6.88;;
16246;SDS011;8231;50.866;7.944;2024-02-21T04:55:42;11.63;;;7.28;;
16246;SDS011;8231;50.866;7.944;2024-02-21T04:58:10;13.13;;;6.32;;
16246;SDS011;8231;50.866;7.944;2024-02-21T05:00:40;11.05;;;6.07;;
16246;SDS011;8231;50.866;7.944;2024-02-21T05:03:08;15.93;;;6.90;;
16246;SDS011;8231;50.866;7.944;2024-02-21T05:05:37;11.18;;;6.68;;
16246;SDS011;8231;50.866;7.944;2024-02-21T05:08:06;7.13;;;5.55;;
16246;SDS011;8231;50.866;7.944;2024-02-21T05:10:34;10.13;;;6.25;;
16246;SDS011;8231;50.866;7.944;2024-02-21T05:13:03;11.82;;;6.25;;
16246;SDS011;8231;50.866;7.944;2024-02-21T05:15:31;13.55;;;6.45;;
16246;SDS011;8231;50.866;7.944;2024-02-21T05:18:01;10.05;;;5.82;;
16246;SDS011;8231;50.866;7.944;2024-02-21T05:20:29;16.50;;;6.20;;
16246;SDS011;8231;50.866;7.944;2024-02-21T05:22:58;9.55;;;5.75;;
16246;SDS011;8231;50.866;7.944;2024-02-21T05:25:26;14.52;;;6.00;;
16246;SDS011;8231;50.866;7.944;2024-02-21T05:27:54;15.30;;;5.55;;
16246;SDS011;8231;50.866;7.944;2024-02-21T05:30:28;8.40;;;6.10;;
16246;SDS011;8231;50.866;7.944;2024-02-21T05:32:56;8.40;;;5.63;;
16246;SDS011;8231;50.866;7.944;2024-02-21T05:35:26;8.77;;;5.63;;
16246;SDS011;8231;50.866;7.944;2024-02-21T05:37:55;11.00;;;5.40;;
16246;SDS011;8231;50.866;7.944;2024-02-21T05:40:23;10.15;;;5.93;;
16246;SDS011;8231;50.866;7.944;2024-02-21T05:42:52;7.88;;;5.63;;
16246;SDS011;8231;50.866;7.944;2024-02-21T05:45:20;10.88;;;6.32;;
16246;SDS011;8231;50.866;7.944;2024-02-21T05:47:48;8.60;;;5.30;;
16246;SDS011;8231;50.866;7.944;2024-02-21T05:50:16;8.27;;;5.18;;
16246;SDS011;8231;50.866;7.944;2024-02-21T05:52:46;8.73;;;5.72;;
16246;SDS011;8231;50.866;7.944;2024-02-21T05:55:14;10.95;;;6.25;;
16246;SDS011;8231;50.866;7.944;2024-02-21T05:57:42;8.88;;;6.00;;
16246;SDS011;8231;50.866;7.944;2024-02-21T06:00:11;7.75;;;5.35;;
16246;SDS011;8231;50.866;7.944;2024-02-21T06:02:40;8.85;;;5.35;;
16246;SDS011;8231;50.866;7.944;2024-02-21T06:05:08;8.48;;;5.50;;
16246;SDS011;8231;50.866;7.944;2024-02-21T06:07:36;14.95;;;6.07;;
16246;SDS011;8231;50.866;7.944;2024-02-21T06:10:08;9.65;;;5.07;;
16246;SDS011;8231;50.866;7.944;2024-02-21T06:12:37;8.35;;;5.78;;
16246;SDS011;8231;50.866;7.944;2024-02-21T06:15:05;13.43;;;5.70;;
16246;SDS011;8231;50.866;7.944;2024-02-21T06:17:34;12.32;;;6.25;;
16246;SDS011;8231;50.866;7.944;2024-02-21T06:20:02;10.82;;;5.47;;
16246;SDS011;8231;50.866;7.944;2024-02-21T06:22:31;9.82;;;5.57;;
16246;SDS011;8231;50.866;7.944;2024-02-21T06:25:00;8.25;;;5.28;;
16246;SDS011;8231;50.866;7.944;2024-02-21T06:27:30;11.70;;;6.55;;
16246;SDS011;8231;50.866;7.944;2024-02-21T06:29:58;9.02;;;5.22;;
16246;SDS011;8231;50.866;7.944;2024-02-21T06:32:26;9.65;;;5.55;;
16246;SDS011;8231;50.866;7.944;2024-02-21T06:34:55;10.02;;;5.53;;
16246;SDS011;8231;50.866;7.944;2024-02-21T06:37:23;8.40;;;5.57;;
16246;SDS011;8231;50.866;7.944;2024-02-21T06:39:52;7.70;;;4.78;;
16246;SDS011;8231;50.866;7.944;2024-02-21T06:42:20;9.23;;;5.60;;
16246;SDS011;8231;50.866;7.944;2024-02-21T06:44:50;12.45;;;6.13;;
16246;SDS011;8231;50.866;7.944;2024-02-21T06:47:18;14.30;;;6.50;;
16246;SDS011;8231;50.866;7.944;2024-02-21T06:49:48;15.02;;;6.25;;
16246;SDS011;8231;50.866;7.944;2024-02-21T06:52:17;9.88;;;5.15;;
16246;SDS011;8231;50.866;7.944;2024-02-21T06:54:47;8.57;;;5.97;;
16246;SDS011;8231;50.866;7.944;2024-02-21T06:57:15;8.60;;;5.18;;
16246;SDS011;8231;50.866;7.944;2024-02-21T06:59:43;10.32;;;5.13;;
16246;SDS011;8231;50.866;7.944;2024-02-21T07:02:13;9.75;;;5.03;;
16246;SDS011;8231;50.866;7.944;2024-02-21T07:04:41;6.85;;;5.18;;
16246;SDS011;8231;50.866;7.944;2024-02-21T07:07:10;12.38;;;5.90;;
16246;SDS011;8231;50.866;7.944;2024-02-21T07:09:39;10.82;;;5.72;;
16246;SDS011;8231;50.866;7.944;2024-02-21T07:12:08;11.93;;;6.03;;
16246;SDS011;8231;50.866;7.944;2024-02-21T07:14:36;10.52;;;5.55;;
16246;SDS011;8231;50.866;7.944;2024-02-21T07:17:04;12.30;;;6.07;;
16246;SDS011;8231;50.866;7.944;2024-02-21T07:19:34;12.05;;;6.13;;
16246;SDS011;8231;50.866;7.944;2024-02-21T07:22:03;12.02;;;5.97;;
16246;SDS011;8231;50.866;7.944;2024-02-21T07:24:31;10.98;;;5.88;;
16246;SDS011;8231;50.866;7.944;2024-02-21T07:26:59;13.80;;;5.50;;
16246;SDS011;8231;50.866;7.944;2024-02-21T07:29:31;13.35;;;6.05;;
16246;SDS011;8231;50.866;7.944;2024-02-21T07:31:59;11.68;;;5.68;;
16246;SDS011;8231;50.866;7.944;2024-02-21T07:34:27;10.15;;;5.78;;
16246;SDS011;8231;50.866;7.944;2024-02-21T07:36:58;10.48;;;5.90;;
16246;SDS011;8231;50.866;7.944;2024-02-21T07:39:26;10.43;;;5.75;;
16246;SDS011;8231;50.866;7.944;2024-02-21T07:41:55;10.23;;;5.70;;
16246;SDS011;8231;50.866;7.944;2024-02-21T07:44:23;8.73;;;4.70;;
16246;SDS011;8231;50.866;7.944;2024-02-21T07:46:52;8.73;;;4.85;;
16246;SDS011;8231;50.866;7.944;2024-02-21T07:49:20;10.60;;;5.28;;
16246;SDS011;8231;50.866;7.944;2024-02-21T07:51:48;7.68;;;5.32;;
16246;SDS011;8231;50.866;7.944;2024-02-21T07:54:18;10.82;;;6.07;;
16246;SDS011;8231;50.866;7.944;2024-02-21T07:56:47;12.75;;;6.32;;
16246;SDS011;8231;50.866;7.944;2024-02-21T07:59:15;10.27;;;6.13;;
16246;SDS011;8231;50.866;7.944;2024-02-21T08:01:43;9.25;;;6.03;;
16246;SDS011;8231;50.866;7.944;2024-02-21T08:04:12;13.18;;;5.93;;
16246;SDS011;8231;50.866;7.944;2024-02-21T08:06:41;9.15;;;5.57;;
16246;SDS011;8231;50.866;7.944;2024-02-21T08:09:10;8.95;;;5.80;;
16246;SDS011;8231;50.866;7.944;2024-02-21T08:11:39;13.10;;;5.45;;
16246;SDS011;8231;50.866;7.944;2024-02-21T08:14:07;8.50;;;5.78;;
16246;SDS011;8231;50.866;7.944;2024-02-21T08:16:35;12.68;;;5.53;;
16246;SDS011;8231;50.866;7.944;2024-02-21T08:19:04;15.65;;;6.50;;
16246;SDS011;8231;50.866;7.944;2024-02-21T08:21:33;13.07;;;5.35;;
16246;SDS011;8231;50.866;7.944;2024-02-21T08:24:01;11.18;;;6.57;;
16246;SDS011;8231;50.866;7.944;2024-02-21T08:26:29;7.90;;;5.07;;
16246;SDS011;8231;50.866;7.944;2024-02-21T08:28:59;11.75;;;6.50;;
16246;SDS011;8231;50.866;7.944;2024-02-21T08:31:28;13.57;;;6.25;;
16246;SDS011;8231;50.866;7.944;2024-02-21T08:33:58;8.35;;;5.68;;
16246;SDS011;8231;50.866;7.944;2024-02-21T08:36:29;13.00;;;6.13;;
16246;SDS011;8231;50.866;7.944;2024-02-21T08:38:59;14.18;;;5.50;;
16246;SDS011;8231;50.866;7.944;2024-02-21T08:41:30;9.40;;;5.80;;
16246;SDS011;8231;50.866;7.944;2024-02-21T08:44:21;9.77;;;5.75;;
16246;SDS011;8231;50.866;7.944;2024-02-21T08:46:50;11.35;;;6.45;;
16246;SDS011;8231;50.866;7.944;2024-02-21T08:49:18;12.23;;;6.15;;
16246;SDS011;8231;50.866;7.944;2024-02-21T08:51:46;9.45;;;5.40;;
16246;SDS011;8231;50.866;7.944;2024-02-21T08:54:15;10.55;;;5.93;;
16246;SDS011;8231;50.866;7.944;2024-02-21T08:56:43;8.82;;;4.90;;
16246;SDS011;8231;50.866;7.944;2024-02-21T08:59:11;8.90;;;5.78;;
16246;SDS011;8231;50.866;7.944;2024-02-21T09:01:43;11.82;;;5.55;;
16246;SDS011;8231;50.866;7.944;2024-02-21T09:04:12;17.05;;;7.03;;
16246;SDS011;8231;50.866;7.944;2024-02-21T09:06:40;15.02;;;7.20;;
16246;SDS011;8231;50.866;7.944;2024-02-21T09:09:09;17.52;;;6.95;;
16246;SDS011;8231;50.866;7.944;2024-02-21T09:11:37;12.23;;;6.13;;
16246;SDS011;8231;50.866;7.944;2024-02-21T09:14:07;11.00;;;6.35;;
16246;SDS011;8231;50.866;7.944;2024-02-21T09:16:35;16.58;;;6.13;;
16246;SDS011;8231;50.866;7.944;2024-02-21T09:19:04;12.80;;;6.82;;
16246;SDS011;8231;50.866;7.944;2024-02-21T09:21:34;20.80;;;10.90;;
16246;SDS011;8231;50.866;7.944;2024-02-21T09:24:02;14.75;;;9.18;;
16246;SDS011;8231;50.866;7.944;2024-02-21T09:26:30;9.77;;;6.40;;
16246;SDS011;8231;50.866;7.944;2024-02-21T09:28:58;10.52;;;6.25;;
16246;SDS011;8231;50.866;7.944;2024-02-21T09:31:26;8.85;;;6.10;;
16246;SDS011;8231;50.866;7.944;2024-02-21T09:33:55;9.13;;;5.00;;
16246;SDS011;8231;50.866;7.944;2024-02-21T09:36:25;12.25;;;5.38;;
16246;SDS011;8231;50.866;7.944;2024-02-21T09:38:53;10.55;;;6.85;;
16246;SDS011;8231;50.866;7.944;2024-02-21T09:41:23;8.95;;;5.63;;
16246;SDS011;8231;50.866;7.944;2024-02-21T09:43:53;12.60;;;6.32;;
16246;SDS011;8231;50.866;7.944;2024-02-21T09:46:24;10.73;;;5.30;;
16246;SDS011;8231;50.866;7.944;2024-02-21T09:49:04;12.57;;;6.43;;
16246;SDS011;8231;50.866;7.944;2024-02-21T09:51:55;9.82;;;6.13;;
16246;SDS011;8231;50.866;7.944;2024-02-21T09:54:24;8.05;;;7.20;;
16246;SDS011;8231;50.866;7.944;2024-02-21T09:56:53;15.77;;;8.40;;
16246;SDS011;8231;50.866;7.944;2024-02-21T09:59:21;12.23;;;5.88;;
16246;SDS011;8231;50.866;7.944;2024-02-21T10:01:51;11.63;;;5.43;;
16246;SDS011;8231;50.866;7.944;2024-02-21T10:04:19;11.48;;;5.63;;
16246;SDS011;8231;50.866;7.944;2024-02-21T10:06:48;11.77;;;6.00;;
16246;SDS011;8231;50.866;7.944;2024-02-21T10:09:22;10.63;;;5.60;;
16246;SDS011;8231;50.866;7.944;2024-02-21T10:11:54;8.60;;;5.30;;
16246;SDS011;8231;50.866;7.944;2024-02-21T10:14:22;11.05;;;5.63;;
16246;SDS011;8231;50.866;7.944;2024-02-21T10:16:56;11.52;;;6.22;;
16246;SDS011;8231;50.866;7.944;2024-02-21T10:19:25;13.70;;;6.25;;
16246;SDS011;8231;50.866;7.944;2024-02-21T10:22:01;6.65;;;5.47;;
16246;SDS011;8231;50.866;7.944;2024-02-21T10:24:32;10.07;;;6.82;;
16246;SDS011;8231;50.866;7.944;2024-02-21T10:27:04;8.80;;;5.45;;
16246;SDS011;8231;50.866;7.944;2024-02-21T10:29:35;11.38;;;5.70;;
16246;SDS011;8231;50.866;7.944;2024-02-21T10:32:05;10.48;;;6.13;;
16246;SDS011;8231;50.866;7.944;2024-02-21T10:34:34;12.65;;;6.32;;
16246;SDS011;8231;50.866;7.944;2024-02-21T10:37:03;9.88;;;5.13;;
16246;SDS011;8231;50.866;7.944;2024-02-21T10:39:34;13.07;;;5.55;;
16246;SDS011;8231;50.866;7.944;2024-02-21T10:42:05;11.48;;;5.45;;
16246;SDS011;8231;50.866;7.944;2024-02-21T10:44:36;8.57;;;5.82;;
16246;SDS011;8231;50.866;7.944;2024-02-21T10:47:07;9.15;;;5.32;;
16246;SDS011;8231;50.866;7.944;2024-02-21T10:49:36;10.38;;;5.35;;
16246;SDS011;8231;50.866;7.944;2024-02-21T10:52:09;11.32;;;5.70;;
16246;SDS011;8231;50.866;7.944;2024-02-21T10:54:45;9.13;;;5.10;;
16246;SDS011;8231;50.866;7.944;2024-02-21T10:57:18;7.78;;;5.47;;
16246;SDS011;8231;50.866;7.944;2024-02-21T10:59:48;9.70;;;6.00;;
16246;SDS011;8231;50.866;7.944;2024-02-21T11:02:17;6.28;;;4.75;;
16246;SDS011;8231;50.866;7.944;2024-02-21T11:04:46;6.93;;;4.60;;
16246;SDS011;8231;50.866;7.944;2024-02-21T11:07:16;8.93;;;5.30;;
16246;SDS011;8231;50.866;7.944;2024-02-21T11:09:51;8.90;;;4.97;;
16246;SDS011;8231;50.866;7.944;2024-02-21T11:12:21;10.57;;;4.97;;
16246;SDS011;8231;50.866;7.944;2024-02-21T11:14:51;10.13;;;4.78;;
16246;SDS011;8231;50.866;7.944;2024-02-21T11:17:19;6.43;;;4.28;;
16246;SDS011;8231;50.866;7.944;2024-02-21T11:19:51;10.25;;;5.28;;
16246;SDS011;8231;50.866;7.944;2024-02-21T11:22:19;7.00;;;4.63;;
16246;SDS011;8231;50.866;7.944;2024-02-21T11:24:49;8.90;;;4.75;;
16246;SDS011;8231;50.866;7.944;2024-02-21T11:27:20;10.80;;;4.93;;
16246;SDS011;8231;50.866;7.944;2024-02-21T11:29:54;9.40;;;4.80;;
16246;SDS011;8231;50.866;7.944;2024-02-21T11:32:24;10.30;;;4.93;;
16246;SDS011;8231;50.866;7.944;2024-02-21T11:34:54;7.80;;;4.70;;
16246;SDS011;8231;50.866;7.944;2024-02-21T11:37:24;11.48;;;5.93;;
16246;SDS011;8231;50.866;7.944;2024-02-21T11:39:55;13.93;;;6.53;;
16246;SDS011;8231;50.866;7.944;2024-02-21T11:42:24;10.73;;;6.47;;
16246;SDS011;8231;50.866;7.944;2024-02-21T11:44:53;7.72;;;4.38;;
16246;SDS011;8231;50.866;7.944;2024-02-21T11:47:23;6.50;;;4.20;;
16246;SDS011;8231;50.866;7.944;2024-02-21T11:49:52;6.10;;;4.22;;
16246;SDS011;8231;50.866;7.944;2024-02-21T11:52:22;7.03;;;3.90;;
16246;SDS011;8231;50.866;7.944;2024-02-21T11:54:53;4.63;;;3.72;;
16246;SDS011;8231;50.866;7.944;2024-02-21T11:57:25;7.22;;;4.75;;
16246;SDS011;8231;50.866;7.944;2024-02-21T11:59:54;8.52;;;4.53;;
16246;SDS011;8231;50.866;7.944;2024-02-21T12:02:26;10.77;;;4.53;;
16246;SDS011;8231;50.866;7.944;2024-02-21T12:04:55;8.77;;;4.00;;
16246;SDS011;8231;50.866;7.944;2024-02-21T12:07:24;10.20;;;4.82;;
16246;SDS011;8231;50.866;7.944;2024-02-21T12:09:58;5.82;;;4.07;;
16246;SDS011;8231;50.866;7.944;2024-02-21T12:12:28;8.48;;;5.10;;
16246;SDS011;8231;50.866;7.944;2024-02-21T12:14:56;10.55;;;4.32;;
16246;SDS011;8231;50.866;7.944;2024-02-21T12:17:25;6.60;;;4.55;;
16246;SDS011;8231;50.866;7.944;2024-02-21T12:19:53;9.27;;;4.20;;
16246;SDS011;8231;50.866;7.944;2024-02-21T12:22:22;11.00;;;4.82;;
16246;SDS011;8231;50.866;7.944;2024-02-21T12:24:52;7.78;;;4.07;;
16246;SDS011;8231;50.866;7.944;2024-02-21T12:27:21;8.90;;;3.95;;
16246;SDS011;8231;50.866;7.944;2024-02-21T12:29:51;10.15;;;5.07;;
16246;SDS011;8231;50.866;7.944;2024-02-21T12:32:20;6.47;;;4.35;;
16246;SDS011;8231;50.866;7.944;2024-02-21T12:34:48;8.70;;;4.78;;
16246;SDS011;8231;50.866;7.944;2024-02-21T12:37:21;9.18;;;4.13;;
16246;SDS011;8231;50.866;7.944;2024-02-21T12:39:50;8.13;;;3.80;;
16246;SDS011;8231;50.866;7.944;2024-02-21T12:42:18;7.07;;;3.40;;
16246;SDS011;8231;50.866;7.944;2024-02-21T12:44:46;6.60;;;3.65;;
16246;SDS011;8231;50.866;7.944;2024-02-21T12:47:16;5.05;;;3.60;;
16246;SDS011;8231;50.866;7.944;2024-02-21T12:49:46;7.47;;;3.70;;
16246;SDS011;8231;50.866;7.944;2024-02-21T12:52:14;11.55;;;3.90;;
16246;SDS011;8231;50.866;7.944;2024-02-21T12:54:42;8.10;;;3.47;;
16246;SDS011;8231;50.866;7.944;2024-02-21T12:57:10;5.15;;;3.10;;
16246;SDS011;8231;50.866;7.944;2024-02-21T12:59:39;3.28;;;2.65;;
16246;SDS011;8231;50.866;7.944;2024-02-21T13:02:07;7.43;;;3.45;;
16246;SDS011;8231;50.866;7.944;2024-02-21T13:04:37;8.10;;;3.63;;
16246;SDS011;8231;50.866;7.944;2024-02-21T13:07:08;7.07;;;3.40;;
16246;SDS011;8231;50.866;7.944;2024-02-21T13:09:36;7.18;;;3.00;;
16246;SDS011;8231;50.866;7.944;2024-02-21T13:12:04;5.63;;;3.40;;
16246;SDS011;8231;50.866;7.944;2024-02-21T13:14:33;4.50;;;2.90;;
16246;SDS011;8231;50.866;7.944;2024-02-21T13:17:03;6.65;;;3.20;;
16246;SDS011;8231;50.866;7.944;2024-02-21T13:19:32;12.57;;;3.03;;
16246;SDS011;8231;50.866;7.944;2024-02-21T13:22:02;5.55;;;2.78;;
16246;SDS011;8231;50.866;7.944;2024-02-21T13:24:30;7.47;;;3.10;;
16246;SDS011;8231;50.866;7.944;2024-02-21T13:26:59;4.60;;;2.83;;
16246;SDS011;8231;50.866;7.944;2024-02-21T13:29:27;6.55;;;2.80;;
16246;SDS011;8231;50.866;7.944;2024-02-21T13:31:56;5.88;;;2.40;;
16246;SDS011;8231;50.866;7.944;2024-02-21T13:34:24;5.22;;;2.83;;
16246;SDS011;8231;50.866;7.944;2024-02-21T13:36:53;7.22;;;2.65;;
16246;SDS011;8231;50.866;7.944;2024-02-21T13:39:22;6.63;;;3.00;;
16246;SDS011;8231;50.866;7.944;2024-02-21T13:41:51;8.50;;;2.90;;
16246;SDS011;8231;50.866;7.944;2024-02-21T13:44:19;6.68;;;2.72;;
16246;SDS011;8231;50.866;7.944;2024-02-21T13:46:47;5.03;;;2.53;;
16246;SDS011;8231;50.866;7.944;2024-02-21T13:49:16;6.38;;;2.53;;
16246;SDS011;8231;50.866;7.944;2024-02-21T13:51:44;8.35;;;3.13;;
16246;SDS011;8231;50.866;7.944;2024-02-21T13:54:12;6.18;;;2.60;;
16246;SDS011;8231;50.866;7.944;2024-02-21T13:56:44;5.20;;;2.80;;
16246;SDS011;8231;50.866;7.944;2024-02-21T13:59:13;10.80;;;6.60;;
16246;SDS011;8231;50.866;7.944;2024-02-21T14:01:41;6.55;;;3.25;;
16246;SDS011;8231;50.866;7.944;2024-02-21T14:04:09;7.78;;;3.42;;
16246;SDS011;8231;50.866;7.944;2024-02-21T14:06:38;9.32;;;2.83;;
16246;SDS011;8231;50.866;7.944;2024-02-21T14:09:10;5.55;;;2.33;;
16246;SDS011;8231;50.866;7.944;2024-02-21T14:11:38;7.55;;;3.22;;
16246;SDS011;8231;50.866;7.944;2024-02-21T14:14:09;6.00;;;2.30;;
16246;SDS011;8231;50.866;7.944;2024-02-21T14:16:38;5.70;;;2.38;;
16246;SDS011;8231;50.866;7.944;2024-02-21T14:19:06;4.70;;;2.50;;
16246;SDS011;8231;50.866;7.944;2024-02-21T14:21:35;5.65;;;2.53;;
16246;SDS011;8231;50.866;7.944;2024-02-21T14:24:03;5.60;;;2.88;;
16246;SDS011;8231;50.866;7.944;2024-02-21T14:26:32;5.28;;;2.53;;
16246;SDS011;8231;50.866;7.944;2024-02-21T14:29:02;6.97;;;2.30;;
16246;SDS011;8231;50.866;7.944;2024-02-21T14:31:32;5.10;;;2.53;;
16246;SDS011;8231;50.866;7.944;2024-02-21T14:34:01;5.82;;;2.72;;
16246;SDS011;8231;50.866;7.944;2024-02-21T14:36:30;6.38;;;3.38;;
16246;SDS011;8231;50.866;7.944;2024-02-21T14:38:59;4.50;;;2.20;;
16246;SDS011;8231;50.866;7.944;2024-02-21T14:41:27;5.53;;;2.33;;
16246;SDS011;8231;50.866;7.944;2024-02-21T14:43:56;4.38;;;2.10;;
16246;SDS011;8231;50.866;7.944;2024-02-21T14:46:30;3.03;;;2.20;;
16246;SDS011;8231;50.866;7.944;2024-02-21T14:49:01;4.93;;;2.20;;
16246;SDS011;8231;50.866;7.944;2024-02-21T14:51:29;4.50;;;1.95;;
16246;SDS011;8231;50.866;7.944;2024-02-21T14:53:58;4.57;;;2.00;;
16246;SDS011;8231;50.866;7.944;2024-02-21T14:56:26;3.60;;;2.20;;
16246;SDS011;8231;50.866;7.944;2024-02-21T14:58:55;4.32;;;2.22;;
16246;SDS011;8231;50.866;7.944;2024-02-21T15:01:35;4.10;;;2.13;;
16246;SDS011;8231;50.866;7.944;2024-02-21T15:04:06;3.35;;;2.22;;